createdAt,value
2023-11-30T00:00:36.008Z,100459.38
2023-11-30T00:03:02.680Z,100455.63
2023-11-30T00:05:29.328Z,100442.94
2023-11-30T00:07:55.862Z,100453.19
2023-11-30T00:10:22.349Z,100453.19
2023-11-30T00:12:49.269Z,100455.63
2023-11-30T00:15:15.857Z,100447.25
2023-11-30T00:17:42.355Z,100451.31
2023-11-30T00:20:09.688Z,100449.44
2023-11-30T00:22:36.352Z,100448.63
2023-11-30T00:25:02.841Z,100444.06
2023-11-30T00:27:29.371Z,100448.38
2023-11-30T00:29:56.122Z,100442.97
2023-11-30T00:32:22.630Z,100439.72
2023-11-30T00:34:49.113Z,100431.66
2023-11-30T00:37:15.602Z,100425.72
2023-11-30T00:39:42.076Z,100432.19
2023-11-30T00:42:08.744Z,100428.94
2023-11-30T00:44:35.754Z,100427.59
2023-11-30T00:47:02.489Z,100427.34
2023-11-30T00:49:28.941Z,100423.56
2023-11-30T00:51:55.378Z,100425.19
2023-11-30T00:54:22.002Z,100421.69
2023-11-30T00:56:48.492Z,100431.91
2023-11-30T00:59:14.922Z,100434.59
2023-11-30T01:01:41.584Z,100433.78
2023-11-30T01:04:08.184Z,100432.72
2023-11-30T01:06:36.677Z,100430.28
2023-11-30T01:09:04.137Z,100423.28
2023-11-30T01:11:30.649Z,100429.75
2023-11-30T01:13:57.141Z,100424.66
2023-11-30T01:16:24.317Z,100423.03
2023-11-30T01:18:51.142Z,100420.59
2023-11-30T01:21:17.899Z,100418.47
2023-11-30T01:23:58.054Z,100416.28
2023-11-30T01:26:24.835Z,100404.72
2023-11-30T01:28:57.265Z,100405.78
2023-11-30T01:31:26.671Z,100409.53
2023-11-30T01:33:53.255Z,100410.63
2023-11-30T01:36:20.281Z,100400.09
2023-11-30T01:38:48.032Z,100397.69
2023-11-30T01:41:14.823Z,100398.47
2023-11-30T01:43:42.320Z,100401.44
2023-11-30T01:46:10.103Z,100399.81
2023-11-30T01:48:38.947Z,100400.88
2023-11-30T01:51:08.629Z,100396.31
2023-11-30T01:53:40.007Z,100404.41
2023-11-30T01:56:09.885Z,100400.09
2023-11-30T01:58:39.376Z,100403.31
2023-11-30T02:01:06.972Z,100397.13
2023-11-30T02:03:38.398Z,100392.56
2023-11-30T02:06:07.508Z,100393.09
2023-11-30T02:08:36.152Z,100390.16
2023-11-30T02:11:27.189Z,100391.22
2023-11-30T02:13:55.256Z,100393.66
2023-11-30T02:16:22.782Z,100388.00
2023-11-30T02:18:49.562Z,100395.00
2023-11-30T02:21:16.352Z,100385.03
2023-11-30T02:23:42.890Z,100388.53
2023-11-30T02:26:14.313Z,100381.00
2023-11-30T02:28:40.918Z,100383.69
2023-11-30T02:31:09.954Z,100381.00
2023-11-30T02:33:36.786Z,100381.81
2023-11-30T02:36:04.700Z,100374.53
2023-11-30T02:38:34.183Z,100382.59
2023-11-30T02:41:25.650Z,100376.41
2023-11-30T02:43:50.029Z,100378.28
2023-11-30T02:46:19.926Z,100376.41
2023-11-30T02:48:47.605Z,100375.59
2023-11-30T02:51:17.280Z,100375.59
2023-11-30T02:53:47.653Z,100378.56
2023-11-30T02:56:14.195Z,100368.59
2023-11-30T02:58:40.795Z,100375.88
2023-11-30T03:01:07.673Z,100371.56
2023-11-30T03:03:34.427Z,100368.59
2023-11-30T03:06:00.990Z,100369.66
2023-11-30T03:08:27.559Z,100363.75
2023-11-30T03:10:57.068Z,100369.13
2023-11-30T03:13:23.568Z,100356.72
2023-11-30T03:15:50.068Z,100366.16
2023-11-30T03:18:16.821Z,100360.50
2023-11-30T03:20:43.524Z,100365.88
2023-11-30T03:23:10.029Z,100357.25
2023-11-30T03:25:43.109Z,100358.88
2023-11-30T03:28:12.263Z,100354.81
2023-11-30T03:30:40.175Z,100361.28
2023-11-30T03:33:06.843Z,100361.03
2023-11-30T03:35:33.496Z,100363.47
2023-11-30T03:38:00.228Z,100369.38
2023-11-30T03:40:26.837Z,100367.50
2023-11-30T03:42:53.458Z,100367.50
2023-11-30T03:45:22.254Z,100361.31
2023-11-30T03:47:48.846Z,100348.66
2023-11-30T03:50:15.405Z,100351.34
2023-11-30T03:52:42.695Z,100355.13
2023-11-30T03:55:09.741Z,100362.13
2023-11-30T03:57:36.246Z,100363.75
2023-11-30T04:00:04.145Z,100365.34
2023-11-30T04:02:31.101Z,100369.13
2023-11-30T04:05:00.529Z,100368.59
2023-11-30T04:07:30.610Z,100364.03
2023-11-30T04:09:57.186Z,100365.34
2023-11-30T04:12:23.760Z,100359.97
2023-11-30T04:14:50.345Z,100361.84
2023-11-30T04:17:16.886Z,100359.97
2023-11-30T04:19:43.527Z,100362.13
2023-11-30T04:22:11.537Z,100364.28
2023-11-30T04:24:38.105Z,100356.22
2023-11-30T04:27:07.330Z,100356.22
2023-11-30T04:29:36.258Z,100359.97
2023-11-30T04:32:06.587Z,100358.91
2023-11-30T04:34:34.645Z,100353.50
2023-11-30T04:37:01.141Z,100352.44
2023-11-30T04:39:27.754Z,100352.44
2023-11-30T04:41:54.280Z,100356.75
2023-11-30T04:44:23.888Z,100359.19
2023-11-30T04:46:50.611Z,100358.09
2023-11-30T04:49:17.141Z,100353.00
2023-11-30T04:51:43.680Z,100362.69
2023-11-30T04:54:10.356Z,100360.00
2023-11-30T04:56:36.999Z,100354.63
2023-11-30T04:59:04.253Z,100358.91
2023-11-30T05:01:32.057Z,100354.06
2023-11-30T05:03:59.792Z,100351.91
2023-11-30T05:06:26.480Z,100361.06
2023-11-30T05:08:52.947Z,100352.19
2023-11-30T05:11:19.555Z,100351.91
2023-11-30T05:13:46.108Z,100357.03
2023-11-30T05:16:13.571Z,100356.78
2023-11-30T05:18:40.796Z,100355.69
2023-11-30T05:21:07.848Z,100356.22
2023-11-30T05:23:34.540Z,100355.97
2023-11-30T05:26:04.336Z,100360.00
2023-11-30T05:28:33.464Z,100354.91
2023-11-30T05:31:00.927Z,100346.81
2023-11-30T05:33:31.039Z,100351.41
2023-11-30T05:35:58.671Z,100357.34
2023-11-30T05:38:25.435Z,100359.75
2023-11-30T05:40:51.962Z,100360.56
2023-11-30T05:43:18.388Z,100361.38
2023-11-30T05:45:45.460Z,100359.22
2023-11-30T05:48:15.173Z,100357.59
2023-11-30T05:50:41.904Z,100357.59
2023-11-30T05:53:08.433Z,100352.75
2023-11-30T05:55:34.982Z,100357.34
2023-11-30T05:58:01.523Z,100355.72
2023-11-30T06:00:28.178Z,100357.34
2023-11-30T06:02:55.351Z,100362.72
2023-11-30T06:05:21.823Z,100368.66
2023-11-30T06:07:49.396Z,100366.25
2023-11-30T06:10:16.324Z,100364.09
2023-11-30T06:12:48.747Z,100366.78
2023-11-30T06:15:15.527Z,100362.19
2023-11-30T06:17:42.187Z,100371.91
2023-11-30T06:20:11.764Z,100372.97
2023-11-30T06:22:38.384Z,100385.38
2023-11-30T06:25:06.632Z,100388.06
2023-11-30T06:27:33.326Z,100383.22
2023-11-30T06:29:59.891Z,100383.50
2023-11-30T06:32:26.428Z,100385.38
2023-11-30T06:34:53.049Z,100384.03
2023-11-30T06:37:19.598Z,100384.84
2023-11-30T06:39:46.105Z,100382.41
2023-11-30T06:42:12.689Z,100387.25
2023-11-30T06:44:43.764Z,100391.84
2023-11-30T06:47:10.474Z,100390.50
2023-11-30T06:49:36.985Z,100391.31
2023-11-30T06:52:05.928Z,100382.97
2023-11-30T06:54:33.254Z,100387.28
2023-11-30T06:57:09.014Z,100387.00
2023-11-30T06:59:35.642Z,100382.97
2023-11-30T07:02:05.129Z,100387.53
2023-11-30T07:04:34.230Z,100387.28
2023-11-30T07:07:00.764Z,100387.28
2023-11-30T07:09:27.335Z,100388.34
2023-11-30T07:11:55.206Z,100398.31
2023-11-30T07:14:22.308Z,100392.66
2023-11-30T07:16:48.899Z,100386.47
2023-11-30T07:19:18.685Z,100387.78
2023-11-30T07:21:45.199Z,100392.38
2023-11-30T07:24:13.310Z,100392.38
2023-11-30T07:26:40.135Z,100388.59
2023-11-30T07:31:52.170Z,100383.22
2023-11-30T07:34:19.016Z,100384.84
2023-11-30T07:36:45.757Z,100394.00
2023-11-30T07:39:12.587Z,100402.88
2023-11-30T07:41:43.807Z,100409.63
2023-11-30T07:44:10.643Z,100407.19
2023-11-30T07:46:37.355Z,100406.91
2023-11-30T07:49:05.375Z,100401.53
2023-11-30T07:51:31.888Z,100409.88
2023-11-30T07:53:58.513Z,100409.88
2023-11-30T07:56:24.969Z,100408.25
2023-11-30T07:58:51.546Z,100407.44
2023-11-30T08:01:18.160Z,100414.97
2023-11-30T08:03:44.782Z,100415.25
2023-11-30T08:06:11.507Z,100413.88
2023-11-30T08:08:38.109Z,100408.75
2023-11-30T08:11:05.796Z,100408.22
2023-11-30T08:13:34.396Z,100407.41
2023-11-30T08:16:06.589Z,100407.94
2023-11-30T08:18:33.399Z,100406.06
2023-11-30T08:21:03.452Z,100403.91
2023-11-30T08:23:30.180Z,100404.16
2023-11-30T08:25:57.434Z,100410.38
2023-11-30T08:28:24.387Z,100411.19
2023-11-30T08:30:50.947Z,100403.63
2023-11-30T08:33:17.534Z,100388.28
2023-11-30T08:35:44.077Z,100392.88
2023-11-30T08:38:10.988Z,100389.09
2023-11-30T08:40:37.480Z,100393.69
2023-11-30T08:43:04.581Z,100399.31
2023-11-30T08:45:31.253Z,100386.94
2023-11-30T08:47:57.793Z,100381.53
2023-11-30T08:50:24.308Z,100385.34
2023-11-30T08:52:50.829Z,100383.47
2023-11-30T08:55:17.351Z,100378.91
2023-11-30T08:57:45.093Z,100381.88
2023-11-30T09:00:15.292Z,100391.34
2023-11-30T09:02:43.479Z,100386.75
2023-11-30T09:05:13.208Z,100388.66
2023-11-30T09:07:39.792Z,100385.41
2023-11-30T09:10:07.871Z,100383.53
2023-11-30T09:12:36.888Z,100379.22
2023-11-30T09:15:09.822Z,100386.50
2023-11-30T09:17:36.948Z,100388.13
2023-11-30T09:20:08.763Z,100389.97
2023-11-30T09:22:36.555Z,100390.25
2023-11-30T09:25:11.551Z,100389.06
2023-11-30T09:27:38.034Z,100377.44
2023-11-30T09:30:08.589Z,100378.00
2023-11-30T09:32:38.165Z,100372.16
2023-11-30T09:35:08.407Z,100370.78
2023-11-30T09:37:38.034Z,100373.72
2023-11-30T09:40:09.981Z,100369.09
2023-11-30T09:42:36.565Z,100371.44
2023-11-30T09:45:06.505Z,100383.44
2023-11-30T09:47:33.115Z,100371.53
2023-11-30T09:50:01.810Z,100366.22
2023-11-30T09:52:29.620Z,100370.34
2023-11-30T09:55:03.220Z,100380.00
2023-11-30T09:57:29.908Z,100377.97
2023-11-30T09:59:56.438Z,100374.88
2023-11-30T10:02:26.814Z,100374.44
2023-11-30T10:04:53.889Z,100371.22
2023-11-30T10:07:21.807Z,100369.16
2023-11-30T10:09:48.333Z,100363.72
2023-11-30T10:12:16.061Z,100359.81
2023-11-30T10:14:42.629Z,100352.97
2023-11-30T10:17:13.440Z,100354.97
2023-11-30T10:19:40.340Z,100357.38
2023-11-30T10:22:06.906Z,100351.81
2023-11-30T10:24:33.454Z,100351.72
2023-11-30T10:27:06.278Z,100350.75
2023-11-30T10:29:38.197Z,100347.22
2023-11-30T10:32:07.258Z,100347.16
2023-11-30T10:34:50.221Z,100347.03
2023-11-30T10:37:27.113Z,100347.88
2023-11-30T10:40:01.950Z,100351.63
2023-11-30T10:42:33.151Z,100347.19
2023-11-30T10:45:04.031Z,100348.78
2023-11-30T10:47:31.114Z,100359.03
2023-11-30T10:50:01.550Z,100358.47
2023-11-30T10:52:29.583Z,100359.41
2023-11-30T10:55:15.430Z,100364.34
2023-11-30T10:57:43.798Z,100364.50
2023-11-30T11:00:15.693Z,100365.91
2023-11-30T11:02:48.398Z,100367.56
2023-11-30T11:05:19.507Z,100370.03
2023-11-30T11:07:53.164Z,100367.28
2023-11-30T11:10:36.245Z,100367.56
2023-11-30T11:13:03.141Z,100366.09
2023-11-30T11:15:30.381Z,100366.69
2023-11-30T11:18:05.036Z,100371.34
2023-11-30T11:20:33.378Z,100381.44
2023-11-30T11:23:09.989Z,100376.63
2023-11-30T11:25:47.473Z,100381.66
2023-11-30T11:28:18.508Z,100378.00
2023-11-30T11:30:49.609Z,100384.09
2023-11-30T11:33:19.095Z,100387.31
2023-11-30T11:35:47.005Z,100386.44
2023-11-30T11:38:13.922Z,100390.31
2023-11-30T11:40:41.216Z,100388.75
2023-11-30T11:43:08.425Z,100390.84
2023-11-30T11:45:36.825Z,100384.09
2023-11-30T11:48:13.710Z,100394.03
2023-11-30T11:50:40.384Z,100384.50
2023-11-30T11:53:07.282Z,100386.94
2023-11-30T11:55:33.999Z,100385.38
2023-11-30T11:58:02.706Z,100387.34
2023-11-30T12:00:29.311Z,100379.34
2023-11-30T12:03:09.065Z,100372.16
2023-11-30T12:05:46.863Z,100379.56
2023-11-30T12:08:13.360Z,100384.16
2023-11-30T12:10:42.255Z,100374.44
2023-11-30T12:13:11.768Z,100374.94
2023-11-30T12:15:38.440Z,100368.13
2023-11-30T12:18:08.421Z,100372.41
2023-11-30T12:20:35.616Z,100368.31
2023-11-30T12:23:04.287Z,100372.53
2023-11-30T12:25:30.886Z,100373.69
2023-11-30T12:27:57.420Z,100369.41
2023-11-30T12:30:26.691Z,100363.53
2023-11-30T12:32:53.513Z,100362.22
2023-11-30T12:35:20.369Z,100351.72
2023-11-30T12:37:47.591Z,100356.09
2023-11-30T12:40:14.896Z,100359.94
2023-11-30T12:42:45.456Z,100362.38
2023-11-30T12:45:13.278Z,100362.78
2023-11-30T12:47:41.709Z,100356.91
2023-11-30T12:50:10.074Z,100358.56
2023-11-30T12:52:36.615Z,100365.84
2023-11-30T12:55:03.458Z,100359.84
2023-11-30T12:57:30.065Z,100353.28
2023-11-30T12:59:56.550Z,100363.06
2023-11-30T13:02:23.578Z,100367.44
2023-11-30T13:04:51.265Z,100364.84
2023-11-30T13:07:18.167Z,100363.50
2023-11-30T13:09:45.032Z,100358.81
2023-11-30T13:12:11.984Z,100367.53
2023-11-30T13:14:38.494Z,100379.75
2023-11-30T13:17:05.917Z,100368.91
2023-11-30T13:19:33.731Z,100370.47
2023-11-30T13:22:00.951Z,100375.13
2023-11-30T13:24:27.830Z,100378.38
2023-11-30T13:26:57.062Z,100377.84
2023-11-30T13:29:23.619Z,100380.78
2023-11-30T13:31:50.170Z,100373.00
2023-11-30T13:34:16.783Z,100377.31
2023-11-30T13:36:45.554Z,100373.53
2023-11-30T13:39:12.197Z,100378.88
2023-11-30T13:41:38.723Z,100380.78
2023-11-30T13:44:06.008Z,100379.66
2023-11-30T13:46:32.805Z,100375.13
2023-11-30T13:49:01.837Z,100374.19
2023-11-30T13:51:28.604Z,100375.91
2023-11-30T13:53:56.011Z,100370.00
2023-11-30T13:56:22.785Z,100372.13
2023-11-30T13:58:50.585Z,100368.63
2023-11-30T14:01:19.447Z,100372.09
2023-11-30T14:03:46.132Z,100368.81
2023-11-30T14:06:14.421Z,100379.13
2023-11-30T14:08:41.498Z,100375.97
2023-11-30T14:11:12.890Z,100383.56
2023-11-30T14:13:40.156Z,100375.44
2023-11-30T14:16:07.540Z,100377.34
2023-11-30T14:18:37.043Z,100383.03
2023-11-30T14:21:03.815Z,100375.25
2023-11-30T14:23:30.347Z,100378.81
2023-11-30T14:25:57.793Z,100368.00
2023-11-30T14:28:26.094Z,100373.41
2023-11-30T14:30:53.006Z,100376.84
2023-11-30T14:33:20.110Z,100382.63
2023-11-30T14:35:46.836Z,100382.09
2023-11-30T14:38:13.393Z,100382.09
2023-11-30T14:40:39.998Z,100387.50
2023-11-30T14:43:07.567Z,100380.50
2023-11-30T14:45:34.116Z,100382.38
2023-11-30T14:48:02.051Z,100392.13
2023-11-30T14:50:28.727Z,100389.94
2023-11-30T14:52:55.412Z,100392.13
2023-11-30T14:55:21.974Z,100391.88
2023-11-30T14:57:48.569Z,100398.38
2023-11-30T15:00:18.213Z,100410.84
2023-11-30T15:02:45.724Z,100398.66
2023-11-30T15:05:15.320Z,100405.41
2023-11-30T15:07:42.824Z,100395.44
2023-11-30T15:10:11.981Z,100397.13
2023-11-30T15:12:41.393Z,100398.53
2023-11-30T15:15:14.172Z,100409.88
2023-11-30T15:17:43.317Z,100403.94
2023-11-30T15:20:11.816Z,100411.50
2023-11-30T15:22:39.409Z,100405.06
2023-11-30T15:25:17.911Z,100406.72
2023-11-30T15:27:45.302Z,100408.38
2023-11-30T15:30:12.518Z,100405.41
2023-11-30T15:32:39.571Z,100406.78
2023-11-30T15:35:11.772Z,100403.25
2023-11-30T15:37:38.430Z,100398.09
2023-11-30T15:40:11.551Z,100398.06
2023-11-30T15:42:39.643Z,100397.50
2023-11-30T15:45:11.805Z,100404.81
2023-11-30T15:47:41.401Z,100401.84
2023-11-30T15:50:08.378Z,100406.22
2023-11-30T15:52:34.966Z,100412.69
2023-11-30T15:55:02.676Z,100407.28
2023-11-30T15:57:29.346Z,100414.63
2023-11-30T15:59:55.910Z,100417.06
2023-11-30T16:02:22.489Z,100421.66
2023-11-30T16:04:49.124Z,100433.00
2023-11-30T16:07:15.664Z,100427.88
2023-11-30T16:09:42.345Z,100427.88
2023-11-30T16:12:09.127Z,100430.03
2023-11-30T16:14:37.090Z,100430.28
2023-11-30T16:17:03.816Z,100424.63
2023-11-30T16:19:30.392Z,100421.09
2023-11-30T16:21:58.338Z,100422.47
2023-11-30T16:24:25.300Z,100420.84
2023-11-30T16:26:55.738Z,100427.88
2023-11-30T16:29:22.883Z,100432.75
2023-11-30T16:31:50.343Z,100432.75
2023-11-30T16:34:20.599Z,100435.78
2023-11-30T16:36:51.540Z,100432.81
2023-11-30T16:39:18.296Z,100436.31
2023-11-30T16:41:44.923Z,100427.97
2023-11-30T16:44:12.646Z,100431.19
2023-11-30T16:46:39.934Z,100420.41
2023-11-30T16:49:12.405Z,100424.19
2023-11-30T16:51:41.642Z,100414.72
2023-11-30T16:54:14.698Z,100423.63
2023-11-30T16:56:41.904Z,100426.34
2023-11-30T16:59:08.461Z,100422.03
2023-11-30T17:01:37.619Z,100420.16
2023-11-30T17:04:05.443Z,100408.81
2023-11-30T17:06:32.290Z,100412.31
2023-11-30T17:09:00.253Z,100414.25
2023-11-30T17:12:24.164Z,100408.03
2023-11-30T17:14:50.767Z,100407.78
2023-11-30T17:17:17.315Z,100405.63
2023-11-30T17:19:43.839Z,100405.34
2023-11-30T17:22:11.815Z,100407.00
2023-11-30T17:24:38.453Z,100400.53
2023-11-30T17:27:04.994Z,100407.50
2023-11-30T17:29:31.992Z,100406.72
2023-11-30T17:32:01.520Z,100417.22
2023-11-30T17:34:28.623Z,100415.59
2023-11-30T17:36:55.240Z,100417.50
2023-11-30T17:39:21.728Z,100420.72
2023-11-30T17:41:48.249Z,100427.47
2023-11-30T17:44:14.808Z,100430.22
2023-11-30T17:46:43.283Z,100432.38
2023-11-30T17:49:09.990Z,100433.41
2023-11-30T17:51:36.618Z,100434.25
2023-11-30T17:54:03.274Z,100443.41
2023-11-30T17:56:29.775Z,100440.44
2023-11-30T17:59:01.288Z,100448.53
2023-11-30T18:01:31.507Z,100452.28
2023-11-30T18:03:58.236Z,100447.19
2023-11-30T18:06:26.449Z,100442.59
2023-11-30T18:08:53.586Z,100442.06
2023-11-30T18:11:26.462Z,100442.88
2023-11-30T18:13:53.040Z,100441.81
2023-11-30T18:16:19.631Z,100436.69
2023-11-30T18:18:46.741Z,100441.50
2023-11-30T18:21:14.757Z,100444.22
2023-11-30T18:23:41.361Z,100441.25
2023-11-30T18:26:07.901Z,100435.88
2023-11-30T18:28:36.790Z,100451.25
2023-11-30T18:31:16.224Z,100454.19
2023-11-30T18:33:47.442Z,100460.69
2023-11-30T18:36:16.928Z,100462.00
2023-11-30T18:38:50.641Z,100457.69
2023-11-30T18:41:19.683Z,100462.25
2023-11-30T18:43:46.195Z,100464.38
2023-11-30T18:46:14.228Z,100467.59
2023-11-30T18:48:40.792Z,100466.78
2023-11-30T18:51:07.786Z,100474.31
2023-11-30T18:53:35.603Z,100479.19
2023-11-30T18:56:04.256Z,100470.28
2023-11-30T18:58:30.983Z,100467.63
2023-11-30T19:00:57.562Z,100466.03
2023-11-30T19:03:24.430Z,100480.59
2023-11-30T19:05:51.083Z,100469.25
2023-11-30T19:08:17.855Z,100480.31
2023-11-30T19:10:44.507Z,100480.03
2023-11-30T19:13:11.717Z,100485.69
2023-11-30T19:15:49.378Z,100485.66
2023-11-30T19:18:16.679Z,100486.22
2023-11-30T19:20:43.345Z,100476.00
2023-11-30T19:23:18.864Z,100481.38
2023-11-30T19:25:46.537Z,100487.81
2023-11-30T19:28:16.053Z,100489.44
2023-11-30T19:30:51.454Z,100485.66
2023-11-30T19:33:18.031Z,100479.75
2023-11-30T19:35:45.081Z,100479.22
2023-11-30T19:38:28.551Z,100472.75
2023-11-30T19:41:20.578Z,100475.72
2023-11-30T19:43:47.217Z,100477.59
2023-11-30T19:46:17.097Z,100479.19
2023-11-30T19:48:45.750Z,100480.00
2023-11-30T19:51:21.738Z,100475.94
2023-11-30T19:53:52.545Z,100492.38
2023-11-30T19:56:21.391Z,100487.50
2023-11-30T19:58:51.268Z,100494.19
2023-11-30T20:01:27.150Z,100498.47
2023-11-30T20:04:02.261Z,100490.13
2023-11-30T20:06:28.923Z,100491.50
2023-11-30T20:08:57.112Z,100494.19
2023-11-30T20:11:26.774Z,100493.66
2023-11-30T20:13:58.566Z,100503.38
2023-11-30T20:16:28.674Z,100500.13
2023-11-30T20:18:56.780Z,100510.66
2023-11-30T20:21:23.620Z,100505.78
2023-11-30T20:23:51.626Z,100497.44
2023-11-30T20:26:19.436Z,100493.66
2023-11-30T20:28:46.996Z,100504.94
2023-11-30T20:31:15.210Z,100503.84
2023-11-30T20:33:42.418Z,100505.69
2023-11-30T20:36:09.489Z,100508.69
2023-11-30T20:38:39.072Z,100506.53
2023-11-30T20:41:07.251Z,100509.75
2023-11-30T20:43:33.971Z,100513.78
2023-11-30T20:46:00.804Z,100520.19
2023-11-30T20:48:53.642Z,100516.63
2023-11-30T20:51:21.257Z,100517.13
2023-11-30T20:53:48.069Z,100520.91
2023-11-30T20:56:14.980Z,100523.59
2023-11-30T20:58:44.475Z,100527.34
2023-11-30T21:01:11.630Z,100515.22
2023-11-30T21:03:38.967Z,100527.88
2023-11-30T21:06:06.590Z,100524.66
2023-11-30T21:08:34.114Z,100525.22
2023-11-30T21:11:02.017Z,100527.94
2023-11-30T21:13:30.973Z,100527.44
2023-11-30T21:15:57.934Z,100535.19
2023-11-30T21:18:24.773Z,100535.44
2023-11-30T21:20:52.509Z,100534.34
2023-11-30T21:23:19.111Z,100540.19
2023-11-30T21:25:48.766Z,100546.06
2023-11-30T21:28:16.182Z,100553.59
2023-11-30T21:30:42.801Z,100553.59
2023-11-30T21:33:09.839Z,100548.22
2023-11-30T21:35:36.405Z,100549.06
2023-11-30T21:38:02.905Z,100552.00
2023-11-30T21:40:44.038Z,100555.16
2023-11-30T21:43:14.130Z,100557.66
2023-11-30T21:45:40.719Z,100559.06
2023-11-30T21:48:07.518Z,100564.75
2023-11-30T21:50:34.722Z,100565.56
2023-11-30T21:53:01.450Z,100567.19
2023-11-30T21:55:28.125Z,100568.22
2023-11-30T21:57:54.780Z,100570.59
2023-11-30T22:00:21.836Z,100569.53
2023-11-30T22:02:48.612Z,100576.78
2023-11-30T22:05:23.761Z,100580.81
2023-11-30T22:07:56.857Z,100583.19
2023-11-30T22:10:23.505Z,100583.72
2023-11-30T22:12:50.386Z,100593.34
2023-11-30T22:15:17.090Z,100589.03
2023-11-30T22:17:43.818Z,100578.28
2023-11-30T22:20:11.087Z,100583.66
2023-11-30T22:22:37.604Z,100581.47
2023-11-30T22:25:04.518Z,100587.66
2023-11-30T22:27:31.988Z,100599.13
2023-11-30T22:29:58.629Z,100593.19
2023-11-30T22:32:27.631Z,100595.88
2023-11-30T22:34:54.190Z,100591.06
2023-11-30T22:37:21.266Z,100601.63
2023-11-30T22:39:48.360Z,100606.69
2023-11-30T22:42:15.847Z,100607.81
2023-11-30T22:44:42.402Z,100606.75
2023-11-30T22:47:09.019Z,100610.28
2023-11-30T22:49:35.714Z,100608.66
2023-11-30T22:52:02.827Z,100608.94
2023-11-30T22:54:29.566Z,100603.25
2023-11-30T22:56:56.190Z,100600.84
2023-11-30T22:59:22.974Z,100606.25
2023-11-30T23:01:50.507Z,100605.13
2023-11-30T23:04:17.401Z,100600.84
2023-11-30T23:06:44.171Z,100612.69
2023-11-30T23:09:10.809Z,100614.56
2023-11-30T23:11:37.371Z,100622.66
2023-11-30T23:14:04.007Z,100623.28
2023-11-30T23:16:30.791Z,100621.94
2023-11-30T23:18:57.495Z,100620.03
2023-11-30T23:21:23.996Z,100626.22
2023-11-30T23:23:50.504Z,100627.03
2023-11-30T23:26:17.860Z,100625.41
2023-11-30T23:28:44.428Z,100631.91
2023-11-30T23:31:11.040Z,100625.75
2023-11-30T23:33:37.680Z,100629.25
2023-11-30T23:36:04.710Z,100621.13
2023-11-30T23:38:31.332Z,100622.50
2023-11-30T23:40:57.889Z,100628.94
2023-11-30T23:43:24.401Z,100627.06
2023-11-30T23:45:51.310Z,100632.19
2023-11-30T23:48:17.856Z,100634.63
2023-11-30T23:50:44.608Z,100631.69
2023-11-30T23:53:11.242Z,100641.66
2023-11-30T23:55:37.826Z,100636.25
2023-11-30T23:58:04.445Z,100635.50
